Time;durP1;ratioP1;P1;durP2;ratioP2;P2;SDS_P1;SDS_P2;PMS_P1;PMS_P2;Temp;Humidity;BMP_temperature;BMP_pressure;BME280_temperature;BME280_humidity;BME280_pressure;Samples;Min_cycle;Max_cycle;Signal;HPM_P1;HPM_P2
2022/02/11 00:08:49;;;;;;;2.88;1.50;;;;;;;;;;5026949;28;19909;-70
2022/02/11 00:11:15;;;;;;;4.97;2.35;;;;;;;;;;5025110;28;20033;-70
2022/02/11 00:13:42;;;;;;;3.88;1.50;;;;;;;;;;5026612;28;20539;-70
2022/02/11 00:16:08;;;;;;;3.45;1.27;;;;;;;;;;5026797;28;20029;-70
2022/02/11 00:18:34;;;;;;;1.73;1.05;;;;;;;;;;5026788;28;20049;-70
2022/02/11 00:21:00;;;;;;;2.08;0.93;;;;;;;;;;5024831;28;20097;-70
2022/02/11 00:23:26;;;;;;;2.45;1.23;;;;;;;;;;5017449;28;20477;-70
2022/02/11 00:26:02;;;;;;;3.80;1.80;;;;;;;;;;5006466;28;20030;-70
2022/02/11 00:33:41;;;;;;;3.55;1.85;;;;;;;;;;5025468;28;20072;-70
2022/02/11 00:36:10;;;;;;;2.33;1.40;;;;;;;;;;5008704;28;20048;-69
2022/02/11 00:38:56;;;;;;;1.92;1.17;;;;;;;;;;5026302;28;20428;-69
2022/02/11 01:03:17;;;;;;;1.88;1.00;;;;;;;;;;5026116;28;20032;-70
2022/02/11 01:05:43;;;;;;;2.10;1.00;;;;;;;;;;5024002;28;20112;-69
2022/02/11 01:08:09;;;;;;;1.60;1.00;;;;;;;;;;5025855;28;20077;-69
2022/02/11 01:10:36;;;;;;;1.58;1.00;;;;;;;;;;5025554;28;20035;-72
2022/02/11 01:13:02;;;;;;;1.58;1.17;;;;;;;;;;5025298;28;20112;-72
2022/02/11 01:15:30;;;;;;;1.90;1.00;;;;;;;;;;5025460;28;20049;-71
2022/02/11 01:18:00;;;;;;;2.05;0.98;;;;;;;;;;5024006;28;20569;-69
2022/02/11 01:20:48;;;;;;;1.58;0.85;;;;;;;;;;5025950;28;20029;-71
2022/02/11 01:26:24;;;;;;;1.90;1.05;;;;;;;;;;5025294;28;20095;-69
2022/02/11 01:37:29;;;;;;;1.73;1.10;;;;;;;;;;4981655;28;20042;-70
2022/02/11 01:51:14;;;;;;;1.67;0.93;;;;;;;;;;5023911;28;20513;-70
2022/02/11 01:54:07;;;;;;;1.15;0.80;;;;;;;;;;5026189;28;20037;-70
2022/02/11 02:02:31;;;;;;;1.25;0.70;;;;;;;;;;5027512;28;20060;-70
2022/02/11 02:57:05;;;;;;;1.45;0.70;;;;;;;;;;5029976;28;20044;-70
2022/02/11 03:34:47;;;;;;;1.60;0.77;;;;;;;;;;5009363;28;20482;-69
2022/02/11 04:26:43;;;;;;;1.23;0.90;;;;;;;;;;5004438;28;20049;-69
2022/02/11 04:56:14;;;;;;;2.22;1.15;;;;;;;;;;5022925;28;20092;-69
2022/02/11 05:01:25;;;;;;;1.77;0.93;;;;;;;;;;5016324;28;20052;-69
2022/02/11 05:03:51;;;;;;;1.30;1.00;;;;;;;;;;5001420;28;20029;-72
2022/02/11 05:06:18;;;;;;;1.95;1.20;;;;;;;;;;5018879;28;20029;-70
2022/02/11 05:08:45;;;;;;;1.38;0.82;;;;;;;;;;5020765;28;20521;-70
2022/02/11 05:11:11;;;;;;;1.55;1.08;;;;;;;;;;5020906;28;20030;-70
2022/02/11 05:13:37;;;;;;;2.47;1.00;;;;;;;;;;5020873;28;20111;-71
2022/02/11 05:16:04;;;;;;;1.88;0.90;;;;;;;;;;5018892;28;20045;-69
2022/02/11 05:18:30;;;;;;;1.70;1.20;;;;;;;;;;5020055;28;20075;-70
2022/02/11 05:20:56;;;;;;;2.25;1.17;;;;;;;;;;5020517;28;20112;-70
2022/02/11 05:23:23;;;;;;;1.95;1.10;;;;;;;;;;5020810;28;20021;-71
2022/02/11 05:25:49;;;;;;;6.13;1.17;;;;;;;;;;5019969;28;20029;-70
2022/02/11 05:28:15;;;;;;;1.80;1.00;;;;;;;;;;5020869;28;20253;-71
2022/02/11 05:30:41;;;;;;;2.83;1.02;;;;;;;;;;5019102;28;20033;-75
2022/02/11 05:33:08;;;;;;;2.97;1.35;;;;;;;;;;5020168;28;20036;-70
2022/02/11 05:35:35;;;;;;;2.35;1.27;;;;;;;;;;5020153;28;20057;-72
2022/02/11 05:38:01;;;;;;;3.45;1.38;;;;;;;;;;5020424;28;20209;-71
2022/02/11 05:40:27;;;;;;;2.88;1.27;;;;;;;;;;5018702;28;20030;-71
2022/02/11 05:42:53;;;;;;;2.10;1.30;;;;;;;;;;5020522;28;20036;-70
2022/02/11 05:45:20;;;;;;;5.35;1.58;;;;;;;;;;5020107;28;20040;-70
2022/02/11 05:47:46;;;;;;;2.28;1.52;;;;;;;;;;5020240;28;20029;-74
2022/02/11 05:50:12;;;;;;;3.53;1.55;;;;;;;;;;5020078;28;20043;-71
2022/02/11 05:52:38;;;;;;;3.10;1.40;;;;;;;;;;5019818;28;20116;-72
2022/02/11 05:55:05;;;;;;;2.55;1.40;;;;;;;;;;5018409;28;20199;-71
2022/02/11 05:57:31;;;;;;;2.67;1.55;;;;;;;;;;5028542;28;20320;-73
2022/02/11 05:59:59;;;;;;;2.20;1.30;;;;;;;;;;5022129;28;20037;-72
2022/02/11 06:02:25;;;;;;;5.18;1.63;;;;;;;;;;5039855;28;20159;-71
2022/02/11 06:04:51;;;;;;;4.88;1.45;;;;;;;;;;5036784;28;20107;-70
2022/02/11 06:07:17;;;;;;;3.55;1.40;;;;;;;;;;5039874;28;20021;-72
2022/02/11 06:09:44;;;;;;;2.22;1.25;;;;;;;;;;5039819;28;20057;-71
2022/02/11 06:12:11;;;;;;;3.22;1.70;;;;;;;;;;5039900;28;20633;-72
2022/02/11 06:14:38;;;;;;;4.65;1.67;;;;;;;;;;5037557;28;20612;-74
2022/02/11 06:17:05;;;;;;;3.50;1.58;;;;;;;;;;5039393;28;20037;-71
2022/02/11 06:19:31;;;;;;;2.53;1.20;;;;;;;;;;5039555;28;20032;-71
2022/02/11 06:21:57;;;;;;;2.10;1.20;;;;;;;;;;5038426;28;20040;-72
2022/02/11 06:24:23;;;;;;;3.05;1.52;;;;;;;;;;5039982;28;20021;-70
2022/02/11 06:26:49;;;;;;;3.85;1.55;;;;;;;;;;5039111;28;20024;-70
2022/02/11 06:29:15;;;;;;;2.53;1.55;;;;;;;;;;5039590;28;20766;-70
2022/02/11 06:31:42;;;;;;;2.47;1.52;;;;;;;;;;5027924;28;20025;-71
2022/02/11 06:34:08;;;;;;;4.07;1.92;;;;;;;;;;5023174;28;20026;-71
2022/02/11 06:36:34;;;;;;;2.58;1.70;;;;;;;;;;5023615;28;20053;-72
2022/02/11 06:39:00;;;;;;;2.70;1.55;;;;;;;;;;5023176;28;20041;-70
2022/02/11 06:41:27;;;;;;;2.72;1.70;;;;;;;;;;5023012;28;20052;-70
2022/02/11 06:43:53;;;;;;;1.98;1.50;;;;;;;;;;5022251;28;20021;-70
2022/02/11 06:46:21;;;;;;;2.70;1.50;;;;;;;;;;5023431;28;20029;-70
2022/02/11 06:48:48;;;;;;;3.05;1.40;;;;;;;;;;5023646;28;20029;-72
2022/02/11 06:51:15;;;;;;;3.08;1.73;;;;;;;;;;5023795;28;20108;-70
2022/02/11 06:53:41;;;;;;;2.53;1.73;;;;;;;;;;5023388;28;20045;-73
2022/02/11 06:56:07;;;;;;;3.00;1.90;;;;;;;;;;5021746;28;20091;-72
2022/02/11 06:58:33;;;;;;;5.35;1.83;;;;;;;;;;5040140;28;20739;-73
2022/02/11 07:01:00;;;;;;;3.63;1.73;;;;;;;;;;5043512;28;20033;-72
2022/02/11 07:03:26;;;;;;;4.97;1.90;;;;;;;;;;5041265;28;20828;-72
2022/02/11 07:05:55;;;;;;;2.50;1.55;;;;;;;;;;5041291;28;20033;-73
2022/02/11 07:08:21;;;;;;;8.98;4.82;;;;;;;;;;5043209;28;20127;-72
2022/02/11 07:10:47;;;;;;;12.30;5.75;;;;;;;;;;5042584;28;20393;-72
2022/02/11 07:13:13;;;;;;;5.85;2.63;;;;;;;;;;5043053;28;20021;-72
2022/02/11 07:15:40;;;;;;;3.40;1.98;;;;;;;;;;5041775;28;20041;-72
2022/02/11 07:18:07;;;;;;;3.85;2.10;;;;;;;;;;5042574;28;20163;-72
2022/02/11 07:20:33;;;;;;;4.47;2.13;;;;;;;;;;5042272;28;20434;-72
2022/02/11 07:22:59;;;;;;;2.80;2.20;;;;;;;;;;5042799;28;20620;-73
2022/02/11 07:25:25;;;;;;;5.60;2.45;;;;;;;;;;5023539;28;20041;-72
2022/02/11 07:27:51;;;;;;;3.78;2.05;;;;;;;;;;5042765;28;20025;-73
2022/02/11 07:30:20;;;;;;;7.97;2.25;;;;;;;;;;5024582;28;20107;-73
2022/02/11 07:32:46;;;;;;;6.15;2.10;;;;;;;;;;5042231;28;20017;-73
2022/02/11 07:35:12;;;;;;;9.52;2.05;;;;;;;;;;5041657;28;20048;-72
2022/02/11 07:37:38;;;;;;;5.70;2.33;;;;;;;;;;5041363;28;20396;-72
2022/02/11 07:40:05;;;;;;;5.40;2.55;;;;;;;;;;5039593;28;20107;-73
2022/02/11 07:42:33;;;;;;;4.88;2.45;;;;;;;;;;5040868;28;20188;-73
2022/02/11 07:44:59;;;;;;;7.38;3.25;;;;;;;;;;5040787;28;20032;-73
2022/02/11 07:47:28;;;;;;;7.18;4.20;;;;;;;;;;5040920;28;20554;-73
2022/02/11 07:49:56;;;;;;;8.18;5.30;;;;;;;;;;5021549;28;20033;-73
2022/02/11 07:52:22;;;;;;;8.35;4.55;;;;;;;;;;5041082;28;20094;-73
2022/02/11 07:54:48;;;;;;;6.90;4.45;;;;;;;;;;5040743;28;20041;-72
2022/02/11 07:57:14;;;;;;;7.03;5.35;;;;;;;;;;5034232;28;20026;-72
2022/02/11 07:59:41;;;;;;;10.60;5.97;;;;;;;;;;5019165;28;20041;-72
2022/02/11 08:02:08;;;;;;;12.23;5.68;;;;;;;;;;5021330;28;20028;-73
2022/02/11 08:04:34;;;;;;;8.55;5.35;;;;;;;;;;5019066;28;20041;-72
2022/02/11 08:07:00;;;;;;;13.63;6.30;;;;;;;;;;5021251;28;20087;-72
2022/02/11 08:09:26;;;;;;;11.32;6.38;;;;;;;;;;5019676;28;20022;-72
2022/02/11 08:11:53;;;;;;;14.82;7.85;;;;;;;;;;5020793;28;20111;-72
2022/02/11 08:14:20;;;;;;;11.68;7.50;;;;;;;;;;5020974;28;20033;-73
2022/02/11 08:16:46;;;;;;;14.32;8.52;;;;;;;;;;5020646;28;20032;-72
2022/02/11 08:19:12;;;;;;;17.90;9.70;;;;;;;;;;5019710;28;20021;-72
2022/02/11 08:21:38;;;;;;;14.38;10.10;;;;;;;;;;5011688;28;20040;-72
2022/02/11 08:24:05;;;;;;;17.23;10.85;;;;;;;;;;4994271;28;20037;-71
2022/02/11 08:26:31;;;;;;;19.05;9.50;;;;;;;;;;5022748;28;20029;-72
2022/02/11 08:28:57;;;;;;;13.10;8.35;;;;;;;;;;5021704;28;20104;-71
2022/02/11 08:31:24;;;;;;;11.13;7.65;;;;;;;;;;5020113;28;20041;-71
2022/02/11 08:33:51;;;;;;;13.77;8.93;;;;;;;;;;4988226;28;20398;-71
2022/02/11 08:36:19;;;;;;;13.38;8.50;;;;;;;;;;4961298;28;1203500;-71
2022/02/11 08:38:45;;;;;;;10.30;7.63;;;;;;;;;;5003374;28;20474;-72
2022/02/11 08:41:11;;;;;;;8.55;5.53;;;;;;;;;;5003357;28;20507;-72
2022/02/11 08:43:38;;;;;;;9.38;5.88;;;;;;;;;;5014127;28;20030;-71
2022/02/11 08:46:04;;;;;;;7.65;6.00;;;;;;;;;;5023473;28;20540;-71
2022/02/11 08:48:30;;;;;;;13.65;5.97;;;;;;;;;;5023002;28;20040;-71
2022/02/11 08:50:57;;;;;;;12.07;6.40;;;;;;;;;;5022013;28;20027;-71
2022/02/11 08:53:24;;;;;;;8.57;6.18;;;;;;;;;;5020936;28;20548;-71
2022/02/11 08:55:50;;;;;;;7.90;5.45;;;;;;;;;;5021855;28;20029;-71
2022/02/11 08:58:19;;;;;;;8.93;5.65;;;;;;;;;;5020905;28;20075;-71
2022/02/11 09:00:49;;;;;;;8.85;5.40;;;;;;;;;;5022151;28;20029;-71
2022/02/11 09:03:19;;;;;;;10.88;5.55;;;;;;;;;;5022014;28;20029;-70
2022/02/11 09:05:46;;;;;;;8.82;5.00;;;;;;;;;;5020664;28;20053;-71
2022/02/11 09:08:12;;;;;;;8.02;5.95;;;;;;;;;;5017988;28;20034;-71
2022/02/11 09:10:39;;;;;;;11.65;6.32;;;;;;;;;;5018056;28;20080;-70
2022/02/11 09:13:05;;;;;;;14.68;5.68;;;;;;;;;;5002462;28;20026;-71
2022/02/11 09:15:32;;;;;;;8.82;6.60;;;;;;;;;;5012052;28;20037;-71
2022/02/11 09:17:58;;;;;;;9.80;6.13;;;;;;;;;;5017957;28;20047;-71
2022/02/11 09:20:25;;;;;;;16.23;9.50;;;;;;;;;;5016725;28;20223;-71
2022/02/11 09:22:52;;;;;;;18.10;9.88;;;;;;;;;;5021107;28;20025;-70
2022/02/11 09:25:18;;;;;;;19.92;11.45;;;;;;;;;;5020529;28;20033;-71
2022/02/11 09:27:45;;;;;;;18.20;10.38;;;;;;;;;;5020751;28;20090;-71
2022/02/11 09:30:12;;;;;;;12.95;7.63;;;;;;;;;;5017741;28;20607;-70
2022/02/11 09:32:38;;;;;;;9.63;6.28;;;;;;;;;;5020479;28;20049;-70
2022/02/11 09:35:04;;;;;;;9.00;6.65;;;;;;;;;;5021831;28;20050;-70
2022/02/11 09:37:31;;;;;;;8.32;5.40;;;;;;;;;;5023013;28;20029;-70
2022/02/11 09:39:57;;;;;;;9.55;5.35;;;;;;;;;;5001797;28;20497;-71
2022/02/11 09:42:23;;;;;;;7.13;4.32;;;;;;;;;;5003702;28;20477;-71
2022/02/11 09:44:50;;;;;;;6.82;4.22;;;;;;;;;;5021676;28;20025;-70
2022/02/11 09:47:16;;;;;;;5.90;4.10;;;;;;;;;;5020806;28;20485;-70
2022/02/11 09:49:44;;;;;;;7.20;4.00;;;;;;;;;;5021755;28;20037;-70
2022/02/11 09:52:11;;;;;;;6.57;4.00;;;;;;;;;;5022106;28;20028;-70
2022/02/11 09:54:37;;;;;;;6.28;3.97;;;;;;;;;;5021574;28;20029;-71
2022/02/11 09:57:03;;;;;;;5.78;4.07;;;;;;;;;;5020137;28;20091;-70
2022/02/11 09:59:30;;;;;;;8.80;4.68;;;;;;;;;;5021708;28;20026;-71
2022/02/11 10:01:57;;;;;;;8.10;4.72;;;;;;;;;;5021429;28;20029;-70
2022/02/11 10:04:23;;;;;;;7.32;4.15;;;;;;;;;;5021279;28;20018;-71
2022/02/11 10:06:51;;;;;;;9.20;3.75;;;;;;;;;;5021741;28;20037;-71
2022/02/11 10:09:19;;;;;;;6.75;4.43;;;;;;;;;;5020002;28;20397;-71
2022/02/11 10:11:46;;;;;;;9.65;4.70;;;;;;;;;;5021796;28;20036;-70
2022/02/11 10:14:19;;;;;;;7.18;4.53;;;;;;;;;;5021508;28;20349;-70
2022/02/11 10:16:53;;;;;;;7.78;4.55;;;;;;;;;;5021628;28;20022;-70
2022/02/11 10:19:37;;;;;;;7.55;4.80;;;;;;;;;;5020145;28;20029;-70
2022/02/11 10:22:14;;;;;;;7.38;4.93;;;;;;;;;;5017649;28;20509;-70
2022/02/11 10:24:41;;;;;;;6.82;4.25;;;;;;;;;;5020169;28;20075;-71
2022/02/11 10:27:17;;;;;;;5.30;3.80;;;;;;;;;;5021404;28;20029;-71
2022/02/11 10:29:43;;;;;;;5.72;3.78;;;;;;;;;;5020435;28;20120;-70
2022/02/11 10:32:09;;;;;;;5.35;3.92;;;;;;;;;;5021245;28;20298;-70
2022/02/11 10:34:39;;;;;;;7.47;3.75;;;;;;;;;;5021110;28;20038;-70
2022/02/11 10:37:08;;;;;;;11.63;5.53;;;;;;;;;;5021483;28;20223;-71
2022/02/11 10:39:37;;;;;;;8.18;5.95;;;;;;;;;;5021580;28;20029;-70
2022/02/11 10:42:08;;;;;;;10.55;5.57;;;;;;;;;;5019587;28;20026;-71
2022/02/11 10:44:39;;;;;;;10.02;6.30;;;;;;;;;;5021037;28;20022;-71
2022/02/11 10:47:13;;;;;;;10.60;6.38;;;;;;;;;;5021297;28;20022;-71
2022/02/11 10:49:47;;;;;;;8.80;5.50;;;;;;;;;;5020525;28;20034;-70
2022/02/11 10:52:27;;;;;;;9.65;5.85;;;;;;;;;;5021605;28;20614;-70
2022/02/11 10:54:54;;;;;;;8.60;5.70;;;;;;;;;;5020149;28;20151;-70
2022/02/11 10:57:21;;;;;;;9.80;5.65;;;;;;;;;;5020891;28;20083;-70
2022/02/11 10:59:48;;;;;;;6.93;5.75;;;;;;;;;;5020201;28;20025;-70
2022/02/11 11:02:18;;;;;;;10.35;5.78;;;;;;;;;;5020983;28;20097;-71
2022/02/11 11:04:48;;;;;;;7.05;5.60;;;;;;;;;;5021394;28;20505;-71
2022/02/11 11:07:18;;;;;;;8.27;6.15;;;;;;;;;;5020990;28;20025;-71
2022/02/11 11:09:48;;;;;;;9.55;6.47;;;;;;;;;;5020912;28;20513;-70
2022/02/11 11:12:18;;;;;;;8.02;6.22;;;;;;;;;;5021052;28;20621;-70
2022/02/11 11:14:45;;;;;;;9.00;5.70;;;;;;;;;;5020857;28;20041;-70
2022/02/11 11:17:11;;;;;;;11.93;6.55;;;;;;;;;;5021768;28;20025;-70
2022/02/11 11:19:38;;;;;;;7.20;5.57;;;;;;;;;;5024704;28;20035;-71
2022/02/11 11:22:14;;;;;;;8.13;6.18;;;;;;;;;;5024304;28;20037;-70
2022/02/11 11:24:44;;;;;;;8.90;6.10;;;;;;;;;;5024305;28;20021;-71
2022/02/11 11:27:10;;;;;;;10.90;6.55;;;;;;;;;;5005464;28;20036;-71
2022/02/11 11:29:36;;;;;;;10.65;6.60;;;;;;;;;;5024692;28;20112;-70
2022/02/11 11:32:06;;;;;;;8.57;5.68;;;;;;;;;;5024232;28;20033;-70
2022/02/11 11:34:33;;;;;;;10.40;5.72;;;;;;;;;;5023764;28;20075;-70
2022/02/11 11:37:07;;;;;;;7.55;6.13;;;;;;;;;;5024449;28;20029;-71
2022/02/11 11:39:34;;;;;;;11.63;7.47;;;;;;;;;;5024688;28;20025;-70
2022/02/11 11:42:08;;;;;;;9.23;6.07;;;;;;;;;;5022819;28;20026;-70
2022/02/11 11:44:47;;;;;;;7.53;5.95;;;;;;;;;;5024583;28;20662;-70
2022/02/11 11:47:35;;;;;;;6.90;5.18;;;;;;;;;;5024160;28;20022;-70
2022/02/11 11:50:03;;;;;;;8.93;5.85;;;;;;;;;;5024086;28;20460;-71
2022/02/11 11:52:47;;;;;;;8.57;6.43;;;;;;;;;;5024000;28;20025;-71
2022/02/11 11:55:20;;;;;;;8.00;6.22;;;;;;;;;;5006740;28;20036;-71
2022/02/11 11:57:47;;;;;;;7.65;5.90;;;;;;;;;;5023742;28;20076;-71
2022/02/11 12:00:14;;;;;;;9.75;6.38;;;;;;;;;;5024247;28;20079;-70
2022/02/11 12:02:48;;;;;;;10.18;6.43;;;;;;;;;;5021886;28;20108;-70
2022/02/11 12:05:14;;;;;;;8.45;6.03;;;;;;;;;;5023687;28;20347;-70
2022/02/11 12:07:41;;;;;;;11.40;6.07;;;;;;;;;;5024049;28;20105;-71
2022/02/11 12:10:09;;;;;;;7.22;5.60;;;;;;;;;;5023598;28;20053;-71
2022/02/11 12:12:36;;;;;;;7.45;5.80;;;;;;;;;;5023588;28;20389;-71
2022/02/11 12:15:04;;;;;;;11.20;6.15;;;;;;;;;;5021964;28;20045;-70
2022/02/11 12:17:31;;;;;;;9.57;5.47;;;;;;;;;;5023943;28;20091;-71
2022/02/11 12:19:57;;;;;;;9.55;5.40;;;;;;;;;;5005635;28;20408;-71
2022/02/11 12:22:25;;;;;;;6.63;4.95;;;;;;;;;;5005661;28;20025;-71
2022/02/11 12:27:38;;;;;;;7.75;5.60;;;;;;;;;;5020729;28;20168;-71
2022/02/11 12:30:08;;;;;;;9.20;5.40;;;;;;;;;;5005699;28;20112;-70
2022/02/11 12:32:49;;;;;;;7.82;5.22;;;;;;;;;;5023075;28;20029;-71
2022/02/11 12:35:28;;;;;;;6.68;5.10;;;;;;;;;;5023243;28;20071;-71
2022/02/11 12:37:55;;;;;;;7.50;5.47;;;;;;;;;;5023063;28;20103;-70
2022/02/11 12:40:24;;;;;;;7.80;5.10;;;;;;;;;;5023595;28;20021;-70
2022/02/11 12:42:52;;;;;;;6.47;5.15;;;;;;;;;;5021174;28;20091;-70
2022/02/11 12:45:22;;;;;;;10.70;5.82;;;;;;;;;;5023064;28;20029;-70
2022/02/11 12:47:53;;;;;;;6.55;5.00;;;;;;;;;;5022506;28;20029;-70
2022/02/11 12:50:20;;;;;;;7.32;5.22;;;;;;;;;;5021246;28;20017;-71
2022/02/11 12:52:46;;;;;;;8.13;5.55;;;;;;;;;;5022642;28;20112;-71
2022/02/11 12:55:18;;;;;;;10.55;5.70;;;;;;;;;;5022807;28;20116;-71
2022/02/11 12:57:45;;;;;;;;;;;;;;;;;;5023142;28;20028;-70
2022/02/11 13:00:15;;;;;;;9.45;5.40;;;;;;;;;;5021377;28;19906;-71
2022/02/11 13:02:42;;;;;;;6.88;5.47;;;;;;;;;;5022367;28;20021;-70
2022/02/11 13:05:13;;;;;;;8.73;6.07;;;;;;;;;;5022408;28;20560;-70
2022/02/11 13:07:41;;;;;;;7.88;5.95;;;;;;;;;;5022073;28;20461;-71
2022/02/11 13:10:08;;;;;;;6.45;4.63;;;;;;;;;;5023257;28;20124;-71
2022/02/11 13:12:38;;;;;;;6.45;5.50;;;;;;;;;;5022694;28;20029;-71
2022/02/11 13:15:05;;;;;;;8.15;5.07;;;;;;;;;;5020246;28;20044;-70
2022/02/11 13:17:31;;;;;;;6.22;5.15;;;;;;;;;;5022597;28;20025;-70
2022/02/11 13:20:14;;;;;;;9.02;5.65;;;;;;;;;;5005051;28;20021;-70
2022/02/11 13:22:42;;;;;;;7.50;4.72;;;;;;;;;;5022280;28;20032;-72
2022/02/11 13:25:09;;;;;;;6.53;4.85;;;;;;;;;;5020645;28;20053;-72
2022/02/11 13:27:41;;;;;;;8.20;5.20;;;;;;;;;;5004410;28;20029;-70
2022/02/11 13:30:07;;;;;;;;;;;;;;;;;;5022440;28;20021;-70
2022/02/11 13:32:33;;;;;;;8.15;4.78;;;;;;;;;;5022334;28;19953;-72
2022/02/11 13:35:03;;;;;;;5.93;4.55;;;;;;;;;;5019946;28;20057;-72
2022/02/11 13:37:40;;;;;;;6.10;4.40;;;;;;;;;;5022155;28;20025;-72
2022/02/11 13:40:09;;;;;;;8.63;5.43;;;;;;;;;;5021892;28;20034;-72
2022/02/11 13:42:35;;;;;;;6.18;4.80;;;;;;;;;;5020492;28;20036;-72
2022/02/11 13:45:03;;;;;;;6.75;4.80;;;;;;;;;;5021778;28;20742;-72
2022/02/11 13:47:29;;;;;;;8.27;4.65;;;;;;;;;;5021756;28;20410;-72
2022/02/11 13:50:05;;;;;;;8.93;4.95;;;;;;;;;;5021922;28;20029;-72
2022/02/11 13:55:18;;;;;;;6.72;5.28;;;;;;;;;;5021702;28;20056;-72
2022/02/11 13:57:44;;;;;;;7.97;4.65;;;;;;;;;;5021810;28;20029;-72
2022/02/11 14:00:46;;;;;;;8.70;5.40;;;;;;;;;;5021514;28;20056;-72
2022/02/11 14:03:21;;;;;;;8.27;5.15;;;;;;;;;;4960143;28;20038;-70
2022/02/11 14:05:49;;;;;;;7.75;4.95;;;;;;;;;;5012926;28;20086;-70
2022/02/11 14:08:15;;;;;;;8.77;5.63;;;;;;;;;;5020235;28;20592;-72
2022/02/11 14:10:43;;;;;;;10.35;5.95;;;;;;;;;;5020793;28;20083;-72
2022/02/11 14:13:10;;;;;;;7.03;5.20;;;;;;;;;;5020945;28;20513;-72
2022/02/11 14:15:36;;;;;;;8.57;5.57;;;;;;;;;;5018575;28;20682;-72
2022/02/11 14:18:06;;;;;;;11.93;5.72;;;;;;;;;;5006838;28;20033;-72
2022/02/11 14:20:32;;;;;;;8.35;5.32;;;;;;;;;;4999705;28;20030;-72
2022/02/11 14:23:10;;;;;;;7.68;5.07;;;;;;;;;;4999723;28;20065;-72
2022/02/11 14:25:36;;;;;;;6.57;5.03;;;;;;;;;;4998924;28;20065;-72
2022/02/11 14:28:02;;;;;;;7.50;5.10;;;;;;;;;;5001826;28;20487;-72
2022/02/11 14:30:29;;;;;;;7.15;5.07;;;;;;;;;;5017210;28;20025;-72
2022/02/11 14:32:55;;;;;;;11.38;4.80;;;;;;;;;;5018622;28;20072;-72
2022/02/11 14:35:21;;;;;;;5.55;4.15;;;;;;;;;;5018757;28;20139;-72
2022/02/11 14:37:48;;;;;;;8.02;4.45;;;;;;;;;;5019250;28;20026;-72
2022/02/11 14:40:14;;;;;;;7.85;4.72;;;;;;;;;;5018711;28;20036;-72
2022/02/11 14:42:40;;;;;;;7.05;5.85;;;;;;;;;;5018178;28;20029;-72
2022/02/11 14:45:09;;;;;;;6.50;4.88;;;;;;;;;;5016854;28;20026;-72
2022/02/11 14:47:35;;;;;;;8.18;4.38;;;;;;;;;;5019131;28;20033;-72
2022/02/11 14:50:01;;;;;;;8.40;4.55;;;;;;;;;;5018823;28;20159;-71
2022/02/11 14:52:27;;;;;;;6.63;3.45;;;;;;;;;;5020597;28;20029;-71
2022/02/11 14:54:58;;;;;;;6.68;3.42;;;;;;;;;;5021426;28;20030;-72
2022/02/11 14:57:24;;;;;;;8.70;4.07;;;;;;;;;;5020334;28;20037;-71
2022/02/11 14:59:50;;;;;;;6.70;3.40;;;;;;;;;;5022123;28;20061;-71
2022/02/11 15:02:17;;;;;;;6.70;3.50;;;;;;;;;;5022374;28;20064;-71
2022/02/11 15:04:43;;;;;;;8.60;3.90;;;;;;;;;;5020901;28;20033;-71
2022/02/11 15:07:11;;;;;;;10.18;3.50;;;;;;;;;;5021439;28;20628;-72
2022/02/11 15:09:37;;;;;;;8.23;3.92;;;;;;;;;;5022555;28;20522;-72
2022/02/11 15:12:03;;;;;;;5.63;3.58;;;;;;;;;;5021577;28;20029;-72
2022/02/11 15:14:30;;;;;;;5.78;3.60;;;;;;;;;;5022072;28;20416;-72
2022/02/11 15:16:56;;;;;;;7.05;4.20;;;;;;;;;;5025598;28;20572;-72
2022/02/11 15:19:22;;;;;;;5.65;3.53;;;;;;;;;;5041149;28;20252;-72
2022/02/11 15:21:48;;;;;;;5.82;3.03;;;;;;;;;;5042436;28;20032;-72
2022/02/11 15:24:15;;;;;;;5.30;3.60;;;;;;;;;;5024494;28;20052;-72
2022/02/11 15:26:41;;;;;;;6.32;3.58;;;;;;;;;;5041999;28;20043;-72
2022/02/11 15:29:07;;;;;;;5.03;3.60;;;;;;;;;;5041449;28;20021;-73
2022/02/11 15:31:36;;;;;;;7.68;3.20;;;;;;;;;;5024877;28;20033;-72
2022/02/11 15:34:03;;;;;;;5.93;3.63;;;;;;;;;;5042134;28;20049;-71
2022/02/11 15:36:30;;;;;;;5.47;3.40;;;;;;;;;;5030951;28;20155;-70
2022/02/11 15:38:56;;;;;;;10.75;3.75;;;;;;;;;;5025647;28;20125;-72
2022/02/11 15:41:23;;;;;;;4.38;2.80;;;;;;;;;;5022031;28;20040;-72
2022/02/11 15:43:49;;;;;;;6.00;3.60;;;;;;;;;;5003499;28;20017;-72
2022/02/11 15:46:15;;;;;;;6.00;3.42;;;;;;;;;;5020969;28;20048;-72
2022/02/11 15:48:41;;;;;;;5.97;3.42;;;;;;;;;;5021565;28;20030;-72
2022/02/11 15:51:09;;;;;;;6.20;3.63;;;;;;;;;;5021233;28;20064;-72
2022/02/11 15:53:36;;;;;;;6.82;3.67;;;;;;;;;;5021447;28;20052;-72
2022/02/11 15:56:03;;;;;;;5.47;3.72;;;;;;;;;;5019161;28;20037;-72
2022/02/11 15:58:29;;;;;;;5.47;3.83;;;;;;;;;;5020802;28;20045;-72
2022/02/11 16:00:55;;;;;;;7.85;3.63;;;;;;;;;;5020521;28;20026;-73
2022/02/11 16:03:24;;;;;;;7.20;4.00;;;;;;;;;;5021036;28;20044;-72
2022/02/11 16:05:50;;;;;;;9.55;4.80;;;;;;;;;;5019967;28;20087;-73
2022/02/11 16:08:16;;;;;;;5.88;3.70;;;;;;;;;;5022480;28;20030;-73
2022/02/11 16:10:42;;;;;;;8.48;4.30;;;;;;;;;;5021276;28;20033;-73
2022/02/11 16:13:08;;;;;;;6.15;3.90;;;;;;;;;;5019642;28;20612;-73
2022/02/11 16:15:34;;;;;;;6.75;3.70;;;;;;;;;;5021201;28;20056;-72
2022/02/11 16:18:01;;;;;;;6.35;4.07;;;;;;;;;;5033142;28;20029;-72
2022/02/11 16:20:27;;;;;;;13.15;4.43;;;;;;;;;;5038232;28;20033;-72
2022/02/11 16:22:54;;;;;;;6.15;4.13;;;;;;;;;;5003149;28;20033;-72
2022/02/11 16:25:20;;;;;;;7.00;4.53;;;;;;;;;;5019398;28;20030;-73
2022/02/11 16:27:46;;;;;;;5.90;3.80;;;;;;;;;;5021056;28;20037;-73
2022/02/11 16:30:12;;;;;;;7.03;4.22;;;;;;;;;;5021184;28;20025;-74
2022/02/11 16:32:39;;;;;;;6.75;4.50;;;;;;;;;;5020481;28;20116;-74
2022/02/11 16:35:05;;;;;;;11.43;5.03;;;;;;;;;;5019083;28;20154;-73
2022/02/11 16:37:31;;;;;;;6.97;5.07;;;;;;;;;;5020378;28;20025;-72
2022/02/11 16:39:57;;;;;;;10.23;5.63;;;;;;;;;;5020969;28;20026;-74
2022/02/11 16:42:23;;;;;;;9.38;5.75;;;;;;;;;;5002471;28;20029;-72
2022/02/11 16:44:51;;;;;;;11.88;5.40;;;;;;;;;;5019089;28;20112;-72
2022/02/11 16:47:17;;;;;;;9.80;5.95;;;;;;;;;;5020939;28;20026;-73
2022/02/11 16:49:43;;;;;;;10.23;5.50;;;;;;;;;;5020490;28;20026;-73
2022/02/11 16:52:09;;;;;;;8.77;5.82;;;;;;;;;;5018557;28;20021;-73
2022/02/11 16:54:38;;;;;;;10.05;5.78;;;;;;;;;;5020105;28;20128;-72
2022/02/11 16:57:04;;;;;;;10.25;5.60;;;;;;;;;;5018985;28;20474;-72
2022/02/11 16:59:30;;;;;;;9.00;6.00;;;;;;;;;;5020077;28;20051;-73
2022/02/11 17:01:59;;;;;;;10.55;6.38;;;;;;;;;;5020247;28;20060;-72
2022/02/11 17:04:25;;;;;;;10.45;6.82;;;;;;;;;;5019866;28;20105;-72
2022/02/11 17:06:51;;;;;;;8.82;6.18;;;;;;;;;;5018595;28;20029;-73
2022/02/11 17:09:18;;;;;;;11.65;7.90;;;;;;;;;;5002549;28;20076;-72
2022/02/11 17:11:44;;;;;;;11.60;7.22;;;;;;;;;;5019844;28;20053;-73
2022/02/11 17:14:10;;;;;;;10.93;6.05;;;;;;;;;;5014872;28;20576;-73
2022/02/11 17:16:36;;;;;;;9.52;6.32;;;;;;;;;;5002811;28;20126;-72
2022/02/11 17:19:03;;;;;;;7.88;5.80;;;;;;;;;;5006354;28;20061;-72
2022/02/11 17:21:29;;;;;;;9.57;6.32;;;;;;;;;;5019451;28;20091;-72
2022/02/11 17:23:55;;;;;;;10.02;6.25;;;;;;;;;;5014383;28;20652;-72
2022/02/11 17:26:21;;;;;;;10.30;6.38;;;;;;;;;;5018537;28;20025;-73
2022/02/11 17:28:48;;;;;;;8.82;5.90;;;;;;;;;;5018174;28;20515;-73
2022/02/11 17:31:14;;;;;;;7.30;5.70;;;;;;;;;;5019667;28;20033;-72
2022/02/11 17:33:40;;;;;;;10.25;6.22;;;;;;;;;;5019151;28;20998;-73
2022/02/11 17:36:07;;;;;;;11.32;5.57;;;;;;;;;;5019848;28;20049;-72
2022/02/11 17:38:33;;;;;;;6.90;5.63;;;;;;;;;;5018615;28;20052;-72
2022/02/11 17:41:00;;;;;;;8.98;5.10;;;;;;;;;;5019350;28;20033;-71
2022/02/11 17:43:27;;;;;;;9.15;5.78;;;;;;;;;;5017144;28;20025;-71
2022/02/11 17:45:53;;;;;;;8.63;5.90;;;;;;;;;;5002538;28;20033;-72
2022/02/11 17:48:20;;;;;;;8.68;6.30;;;;;;;;;;5017665;28;20030;-72
2022/02/11 17:50:46;;;;;;;9.57;5.80;;;;;;;;;;5020103;28;20154;-72
2022/02/11 17:53:12;;;;;;;16.15;6.43;;;;;;;;;;5017513;28;20103;-72
2022/02/11 17:55:38;;;;;;;9.82;6.10;;;;;;;;;;5017453;28;20034;-72
2022/02/11 17:58:04;;;;;;;9.82;6.00;;;;;;;;;;5017360;28;20546;-72
2022/02/11 18:00:30;;;;;;;6.60;5.30;;;;;;;;;;5018841;28;20767;-72
2022/02/11 18:02:57;;;;;;;7.85;4.78;;;;;;;;;;5019206;28;20144;-71
2022/02/11 18:05:23;;;;;;;7.03;4.30;;;;;;;;;;5019649;28;20038;-71
2022/02/11 18:07:50;;;;;;;5.10;4.10;;;;;;;;;;5018778;28;20068;-72
2022/02/11 18:10:16;;;;;;;6.75;3.88;;;;;;;;;;5018008;28;20029;-72
2022/02/11 18:12:43;;;;;;;9.13;3.70;;;;;;;;;;5018561;28;20879;-72
2022/02/11 18:15:09;;;;;;;5.03;3.42;;;;;;;;;;5018486;28;20048;-71
2022/02/11 18:17:36;;;;;;;4.40;2.45;;;;;;;;;;5022579;28;20051;-74
2022/02/11 18:20:03;;;;;;;4.63;2.60;;;;;;;;;;5007134;28;20544;-71
2022/02/11 18:22:29;;;;;;;4.40;2.35;;;;;;;;;;5017573;28;20108;-71
2022/02/11 18:24:55;;;;;;;5.30;2.65;;;;;;;;;;5019618;28;20493;-71
2022/02/11 18:27:22;;;;;;;4.90;3.00;;;;;;;;;;5023484;28;20142;-71
2022/02/11 18:29:48;;;;;;;4.20;2.80;;;;;;;;;;5023010;28;20017;-72
2022/02/11 18:32:14;;;;;;;7.32;3.42;;;;;;;;;;5023403;28;20030;-71
2022/02/11 18:34:41;;;;;;;7.65;3.42;;;;;;;;;;5021374;28;20056;-73
2022/02/11 18:37:07;;;;;;;9.45;4.32;;;;;;;;;;5023426;28;20390;-71
2022/02/11 18:39:34;;;;;;;8.50;4.88;;;;;;;;;;5023350;28;20110;-72